Etusivu
METAR-TAF:

METAR-TAF

Lentoasemat :

Finkenwerder, Saksa

Leveyspiiri: 53-32N, Pituuspiiri: 009-50E, korkeus merenpinnasta: 5 m

Tämänhetkinen sää

Tämä raportti tehtiin 11 minuuttia sitten, kello 20.20 UTC
Tuuli 6 kn lounaasta
Lämpötila 2°C
Kosteus 100%
Ilmanpaine 1021 hPa
Näkyvyys: 1300 m

METAR: EDHI 242020Z AUTO 23006KT 2200 1300 R23/P2000N // OVC004/// 02/02 Q1021

Aika: 21:31 (20:31 UTC)

Sääennuste

Tämä raportti tehtiin 3 tuntia ja 31 minuuttia sitten, kello 17.00 UTC
Ennuste voimassa 24. päivästä klo 18 UTC - 24. päivään klo 21 UTC
Tuuli 8 kn lounaasta
Näkyvyys: 3500 m
Pilvistä 400 ft:n korkeudessa
utua
Ajoittain
24. päivästä klo 18 UTC - 24. päivään klo 21 UTC
Näkyvyys: 2000 m
Hajonneita pilviä 500 ft:n korkeudessa
heikkoa tihkusadetta

TAF: EDHI 241700Z 2418/2421 23008KT 3500 BR OVC004 TEMPO 2418/2421 2000 -DZ BKN005

Säähavainnot ja -ennusteet yli 4000 lentoasemalta (METAR- ja TAF-raportit).

Käytössä olevat sääasemat on merkitty karttaan keltaisilla ja punaisilla pisteillä.

Aseta hiiri pisteen päälle nähdäksesi sääaseman nimen.

Klikkaa sitten nähdäksesi säähavainnot ja -ennusteet.

Kartan vaihtaminen: klikkaa mustalla rastilla varustettuja vihreitä pisteitä, niin voit zoomata sisään; viivalla varustettua vihreää pistettä, niin voit zoomata ulos tai vihreitä nuolia, niin pääset viereisille kartoille.


METAR-TAF: